createdAt,value
2018-04-12T00:00:40.637Z,61.67
2018-04-12T00:03:10.620Z,64.60
2018-04-12T00:05:40.706Z,61.03
2018-04-12T00:08:09.918Z,64.63
2018-04-12T00:10:39.187Z,62.00
2018-04-12T00:13:08.427Z,64.50
2018-04-12T00:15:37.692Z,63.37
2018-04-12T00:18:07.134Z,62.60
2018-04-12T00:20:36.390Z,60.40
2018-04-12T00:23:05.695Z,63.17
2018-04-12T00:25:34.943Z,60.10
2018-04-12T00:28:04.298Z,59.77
2018-04-12T00:30:34.339Z,64.50
2018-04-12T00:33:03.583Z,64.60
2018-04-12T00:35:32.878Z,63.90
2018-04-12T00:38:02.110Z,61.30
2018-04-12T00:40:31.325Z,62.30
2018-04-12T00:43:00.598Z,64.57
2018-04-12T00:45:29.763Z,61.90
2018-04-12T00:47:58.973Z,63.77
2018-04-12T00:50:28.249Z,65.00
2018-04-12T00:52:57.505Z,64.23
2018-04-12T00:55:27.534Z,63.50
2018-04-12T00:57:57.520Z,63.57
2018-04-12T01:00:26.777Z,62.87
2018-04-12T01:02:56.033Z,60.03
2018-04-12T01:05:26.063Z,63.33
2018-04-12T01:07:55.334Z,63.03
2018-04-12T01:10:24.694Z,59.87
2018-04-12T01:12:53.917Z,60.80
2018-04-12T01:15:23.189Z,62.80
2018-04-12T01:17:52.409Z,62.67
2018-04-12T01:20:21.683Z,61.50
2018-04-12T01:22:50.899Z,58.93
2018-04-12T01:25:20.161Z,55.53
2018-04-12T01:27:49.405Z,57.27
2018-04-12T01:30:18.646Z,57.40
2018-04-12T01:33:06.431Z,56.80
2018-04-12T01:35:35.687Z,55.97
2018-04-12T01:38:04.931Z,58.17
2018-04-12T01:40:34.189Z,56.70
2018-04-12T01:43:03.471Z,56.40
2018-04-12T01:45:33.472Z,57.10
2018-04-12T01:48:02.702Z,53.73
2018-04-12T01:50:31.939Z,55.63
2018-04-12T01:53:01.206Z,56.57
2018-04-12T01:55:30.438Z,53.33
2018-04-12T01:58:00.407Z,54.30
2018-04-12T02:00:29.667Z,51.53
2018-04-12T02:02:58.899Z,53.47
2018-04-12T02:05:28.997Z,52.70
2018-04-12T02:07:58.282Z,49.87
2018-04-12T02:10:27.511Z,51.77
2018-04-12T02:12:57.473Z,49.10
2018-04-12T02:15:26.909Z,49.83
2018-04-12T02:17:57.026Z,48.77
2018-04-12T02:20:26.241Z,48.53
2018-04-12T02:22:56.322Z,47.67
2018-04-12T02:25:25.546Z,48.27
2018-04-12T02:27:55.577Z,46.87
2018-04-12T02:30:24.866Z,48.80
2018-04-12T02:32:54.872Z,47.73
2018-04-12T02:35:24.107Z,48.13
2018-04-12T02:37:53.318Z,49.30
2018-04-12T02:40:22.526Z,49.47
2018-04-12T02:42:51.733Z,48.40
2018-04-12T02:45:21.003Z,48.97
2018-04-12T02:47:50.268Z,51.03
2018-04-12T02:50:19.476Z,51.00
2018-04-12T02:52:49.489Z,50.03
2018-04-12T02:55:18.697Z,46.60
2018-04-12T02:57:48.693Z,48.40
2018-04-12T03:00:17.925Z,47.40
2018-04-12T03:02:47.153Z,47.60
2018-04-12T03:05:16.398Z,47.63
2018-04-12T03:07:45.654Z,47.67
2018-04-12T03:10:15.104Z,47.17
2018-04-12T03:12:45.120Z,44.73
2018-04-12T03:15:15.132Z,45.60
2018-04-12T03:17:44.360Z,45.47
2018-04-12T03:20:13.625Z,45.07
2018-04-12T03:22:43.702Z,45.40
2018-04-12T03:25:12.975Z,46.10
2018-04-12T03:27:42.177Z,47.80
2018-04-12T03:30:11.408Z,44.07
2018-04-12T03:32:40.642Z,46.50
2018-04-12T03:35:10.758Z,46.93
2018-04-12T03:37:40.785Z,46.93
2018-04-12T03:40:10.029Z,45.40
2018-04-12T03:42:40.046Z,46.43
2018-04-12T03:45:09.385Z,45.50
2018-04-12T03:47:38.602Z,45.23
2018-04-12T03:50:07.857Z,44.60
2018-04-12T03:52:37.071Z,44.67
2018-04-12T03:55:06.327Z,44.23
2018-04-12T03:57:35.572Z,46.63
2018-04-12T04:00:04.868Z,46.60
2018-04-12T04:02:34.097Z,46.47
2018-04-12T04:05:03.293Z,45.63
2018-04-12T04:07:32.581Z,45.33
2018-04-12T04:10:02.574Z,47.10
2018-04-12T04:12:31.797Z,44.73
2018-04-12T04:15:28.186Z,47.73
2018-04-12T04:18:14.896Z,47.27
2018-04-12T04:21:12.601Z,46.77
2018-04-12T04:23:41.850Z,50.67
2018-04-12T04:26:11.918Z,50.67
2018-04-12T04:28:42.665Z,48.27
2018-04-12T04:31:11.955Z,49.80
2018-04-12T04:33:41.935Z,49.97
2018-04-12T04:36:11.151Z,49.17
2018-04-12T04:38:41.169Z,49.80
2018-04-12T04:41:11.189Z,51.23
2018-04-12T04:43:41.204Z,49.20
2018-04-12T04:46:11.196Z,51.77
2018-04-12T04:48:40.663Z,51.37
2018-04-12T04:51:09.838Z,48.67
2018-04-12T04:53:39.146Z,49.97
2018-04-12T04:56:08.359Z,48.37
2018-04-12T04:58:37.593Z,49.97
2018-04-12T05:01:06.886Z,49.70
2018-04-12T05:03:36.125Z,49.37
2018-04-12T05:06:06.113Z,50.40
2018-04-12T05:08:36.116Z,47.83
2018-04-12T05:11:05.341Z,50.90
2018-04-12T05:13:35.366Z,49.17
2018-04-12T05:16:05.346Z,49.30
2018-04-12T05:18:34.583Z,47.70
2018-04-12T05:21:04.591Z,49.27
2018-04-12T05:23:33.821Z,50.20
2018-04-12T05:26:03.085Z,51.17
2018-04-12T05:28:33.191Z,48.93
2018-04-12T05:31:02.424Z,51.07
2018-04-12T05:33:32.397Z,51.47
2018-04-12T05:36:01.704Z,51.60
2018-04-12T05:38:31.054Z,51.13
2018-04-12T05:41:00.300Z,48.90
2018-04-12T05:43:29.494Z,51.07
2018-04-12T05:45:58.718Z,52.00
2018-04-12T05:48:28.933Z,51.30
2018-04-12T05:50:58.148Z,50.90
2018-04-12T05:53:27.351Z,50.17
2018-04-12T05:55:56.583Z,47.97
2018-04-12T05:58:25.964Z,52.63
2018-04-12T06:00:55.206Z,48.67
2018-04-12T06:03:24.413Z,52.17
2018-04-12T06:05:54.403Z,51.17
2018-04-12T06:08:23.631Z,52.70
2018-04-12T06:10:53.683Z,51.87
2018-04-12T06:13:23.629Z,52.73
2018-04-12T06:15:52.902Z,54.60
2018-04-12T06:18:22.117Z,52.17
2018-04-12T06:20:51.331Z,54.40
2018-04-12T06:23:20.659Z,57.87
2018-04-12T06:25:50.634Z,56.57
2018-04-12T06:28:19.855Z,53.50
2018-04-12T06:30:49.083Z,54.73
2018-04-12T06:33:18.322Z,55.30
2018-04-12T06:35:47.535Z,54.87
2018-04-12T06:38:16.799Z,55.90
2018-04-12T06:40:46.024Z,55.37
2018-04-12T06:43:15.240Z,54.00
2018-04-12T06:45:44.473Z,56.93
2018-04-12T06:48:13.689Z,55.80
2018-04-12T06:50:43.022Z,53.77
2018-04-12T06:53:12.265Z,54.40
2018-04-12T06:55:41.503Z,55.83
2018-04-12T06:58:10.828Z,53.80
2018-04-12T07:00:40.056Z,53.97
2018-04-12T07:03:10.067Z,53.60
2018-04-12T07:05:40.049Z,55.77
2018-04-12T07:08:09.280Z,54.37
2018-04-12T07:10:39.277Z,55.17
2018-04-12T07:13:09.285Z,55.17
2018-04-12T07:15:38.582Z,52.00
2018-04-12T07:18:07.826Z,52.67
2018-04-12T07:20:37.073Z,53.57
2018-04-12T07:23:06.297Z,53.77
2018-04-12T07:25:36.295Z,55.90
2018-04-12T07:28:05.516Z,53.70
2018-04-12T07:30:35.613Z,54.70
2018-04-12T07:33:04.872Z,54.93
2018-04-12T07:35:34.169Z,56.27
2018-04-12T07:38:03.374Z,50.93
2018-04-12T07:40:32.580Z,55.87
2018-04-12T07:43:01.803Z,50.77
2018-04-12T07:45:31.035Z,52.13
2018-04-12T07:48:01.126Z,56.37
2018-04-12T07:50:30.423Z,54.37
2018-04-12T07:53:00.459Z,56.00
2018-04-12T07:55:29.714Z,51.70
2018-04-12T07:57:59.624Z,53.10
2018-04-12T08:00:28.873Z,54.10
2018-04-12T08:02:58.860Z,50.70
2018-04-12T08:05:28.107Z,49.73
2018-04-12T08:07:57.406Z,53.50
2018-04-12T08:10:27.390Z,51.67
2018-04-12T08:12:57.385Z,51.20
2018-04-12T08:15:26.628Z,51.83
2018-04-12T08:17:55.905Z,53.87
2018-04-12T08:20:25.926Z,51.80
2018-04-12T08:22:55.961Z,50.10
2018-04-12T08:25:25.308Z,50.80
2018-04-12T08:27:54.580Z,49.10
2018-04-12T08:30:23.796Z,49.13
2018-04-12T08:32:53.266Z,47.47
2018-04-12T08:35:22.531Z,49.47
2018-04-12T08:37:51.780Z,49.53
2018-04-12T08:40:21.560Z,49.23
2018-04-12T08:42:50.815Z,48.90
2018-04-12T08:45:20.027Z,47.63
2018-04-12T08:47:49.264Z,50.57
2018-04-12T08:50:18.572Z,50.60
2018-04-12T08:52:47.761Z,51.57
2018-04-12T08:55:17.010Z,51.10
2018-04-12T08:57:46.228Z,50.87
2018-04-12T09:00:16.257Z,52.63
2018-04-12T09:02:46.234Z,49.13
2018-04-12T09:05:15.516Z,50.57
2018-04-12T09:07:44.753Z,52.03
2018-04-12T09:10:13.955Z,52.20
2018-04-12T09:12:43.420Z,53.43
2018-04-12T09:15:12.696Z,50.13
2018-04-12T09:17:41.909Z,49.37
2018-04-12T09:20:11.223Z,51.60
2018-04-12T09:22:41.305Z,48.60
2018-04-12T09:25:10.545Z,48.43
2018-04-12T09:27:39.823Z,46.83
2018-04-12T09:30:08.993Z,49.57
2018-04-12T09:32:38.234Z,48.20
2018-04-12T09:35:07.477Z,43.93
2018-04-12T09:37:37.525Z,43.73
2018-04-12T09:40:06.773Z,42.50
2018-04-12T09:42:36.006Z,42.77
2018-04-12T09:45:05.991Z,42.33
2018-04-12T09:47:36.010Z,42.50
2018-04-12T09:50:05.251Z,39.33
2018-04-12T09:52:34.466Z,40.20
2018-04-12T09:55:03.676Z,38.13
2018-04-12T09:57:32.889Z,38.50
2018-04-12T10:00:02.218Z,39.93
2018-04-12T10:02:31.344Z,38.97
2018-04-12T10:05:00.582Z,39.20
2018-04-12T10:07:35.406Z,36.60
2018-04-12T10:10:04.602Z,37.97
2018-04-12T10:12:33.833Z,35.57
2018-04-12T10:15:03.811Z,37.37
2018-04-12T10:17:33.050Z,38.77
2018-04-12T10:20:03.079Z,37.10
2018-04-12T10:22:32.284Z,34.97
2018-04-12T10:25:01.534Z,39.10
2018-04-12T10:27:30.781Z,37.70
2018-04-12T10:30:00.006Z,36.07
2018-04-12T10:32:29.223Z,37.07
2018-04-12T10:34:58.442Z,39.00
2018-04-12T10:37:28.473Z,36.37
2018-04-12T10:39:58.435Z,35.40
2018-04-12T10:42:28.434Z,37.20
2018-04-12T10:44:57.662Z,37.50
2018-04-12T10:47:26.889Z,36.73
2018-04-12T10:49:56.861Z,35.60
2018-04-12T10:52:26.100Z,33.87
2018-04-12T10:54:56.078Z,37.17
2018-04-12T10:57:25.336Z,37.67
2018-04-12T10:59:55.414Z,35.63
2018-04-12T11:02:24.665Z,35.93
2018-04-12T11:04:53.897Z,36.67
2018-04-12T11:07:23.149Z,36.00
2018-04-12T11:09:52.369Z,34.20
2018-04-12T11:12:21.602Z,34.07
2018-04-12T11:14:50.856Z,32.50
2018-04-12T11:17:20.064Z,34.13
2018-04-12T11:19:49.282Z,33.37
2018-04-12T11:22:18.497Z,34.93
2018-04-12T11:24:47.760Z,33.27
2018-04-12T11:27:17.835Z,34.10
2018-04-12T11:29:47.877Z,32.10
2018-04-12T11:32:17.913Z,31.57
2018-04-12T11:34:47.566Z,33.13
2018-04-12T11:37:16.781Z,31.30
2018-04-12T11:39:46.762Z,28.70
2018-04-12T11:42:16.014Z,30.13
2018-04-12T11:44:45.266Z,32.10
2018-04-12T11:47:14.478Z,31.50
2018-04-12T11:49:44.497Z,30.40
2018-04-12T11:52:14.443Z,32.07
2018-04-12T11:54:43.704Z,31.90
2018-04-12T11:57:12.932Z,30.30
2018-04-12T11:59:42.166Z,30.10
2018-04-12T12:02:11.379Z,30.00
2018-04-12T12:04:40.622Z,30.00
2018-04-12T12:07:09.877Z,30.53
2018-04-12T12:09:39.888Z,30.30
2018-04-12T12:12:09.133Z,29.00
2018-04-12T12:14:38.346Z,30.83
2018-04-12T12:17:07.595Z,32.37
2018-04-12T12:19:36.864Z,29.80
2018-04-12T12:22:06.089Z,28.67
2018-04-12T12:24:35.326Z,30.80
2018-04-12T12:27:04.554Z,27.97
2018-04-12T12:29:33.800Z,28.17
2018-04-12T12:32:03.116Z,29.87
2018-04-12T12:34:32.359Z,30.03
2018-04-12T12:37:01.631Z,30.33
2018-04-12T12:39:30.913Z,28.83
2018-04-12T12:42:00.118Z,30.00
2018-04-12T12:44:29.332Z,29.10
2018-04-12T12:46:58.626Z,29.40
2018-04-12T12:49:27.833Z,29.23
2018-04-12T12:51:57.120Z,29.73
2018-04-12T12:54:27.103Z,28.70
2018-04-12T12:56:57.136Z,28.67
2018-04-12T12:59:26.396Z,28.73
2018-04-12T13:01:55.610Z,30.60
2018-04-12T13:04:24.879Z,28.97
2018-04-12T13:06:54.136Z,28.90
2018-04-12T13:09:23.584Z,29.93
2018-04-12T13:11:52.856Z,28.40
2018-04-12T13:14:22.036Z,29.47
2018-04-12T13:16:51.341Z,30.90
2018-04-12T13:19:20.582Z,30.57
2018-04-12T13:21:49.799Z,29.53
2018-04-12T13:24:19.012Z,29.37
2018-04-12T13:26:49.025Z,29.43
2018-04-12T13:29:18.994Z,28.80
2018-04-12T13:31:48.240Z,29.13
2018-04-12T13:34:18.243Z,29.63
2018-04-12T13:36:47.488Z,30.07
2018-04-12T13:39:16.953Z,29.43
2018-04-12T13:41:46.944Z,29.73
2018-04-12T13:44:16.227Z,28.60
2018-04-12T13:46:45.445Z,29.00
2018-04-12T13:49:14.668Z,31.50
2018-04-12T13:51:44.680Z,29.97
2018-04-12T13:54:14.658Z,31.00
2018-04-12T13:56:43.897Z,31.03
2018-04-12T13:59:13.920Z,33.03
2018-04-12T14:01:43.977Z,30.80
2018-04-12T14:04:13.217Z,32.07
2018-04-12T14:06:42.438Z,31.20
2018-04-12T14:09:11.730Z,31.40
2018-04-12T14:11:41.733Z,33.03
2018-04-12T14:14:11.877Z,33.37
2018-04-12T14:16:41.106Z,32.53
2018-04-12T14:19:10.380Z,32.07
2018-04-12T14:21:40.351Z,33.93
2018-04-12T14:24:10.338Z,33.43
2018-04-12T14:26:39.562Z,33.10
2018-04-12T14:29:08.800Z,32.90
2018-04-12T14:31:38.768Z,32.80
2018-04-12T14:34:08.024Z,34.70
2018-04-12T14:36:37.314Z,33.80
2018-04-12T14:39:07.274Z,35.03
2018-04-12T14:41:36.544Z,35.07
2018-04-12T14:44:05.826Z,35.33
2018-04-12T14:46:35.073Z,35.07
2018-04-12T14:49:04.259Z,34.03
2018-04-12T14:51:33.514Z,35.00
2018-04-12T14:54:03.600Z,36.17
2018-04-12T14:56:32.850Z,34.70
2018-04-12T14:59:02.084Z,34.97
2018-04-12T15:01:32.118Z,34.53
2018-04-12T15:04:01.367Z,36.07
2018-04-12T15:06:30.622Z,36.70
2018-04-12T15:09:00.641Z,36.03
2018-04-12T15:11:30.650Z,36.70
2018-04-12T15:13:59.881Z,37.00
2018-04-12T15:16:29.129Z,36.97
2018-04-12T15:18:58.415Z,36.60
2018-04-12T15:21:27.932Z,37.50
2018-04-12T15:23:57.568Z,40.67
2018-04-12T15:26:26.939Z,40.60
2018-04-12T15:28:56.143Z,44.40
2018-04-12T15:31:25.361Z,43.87
2018-04-12T15:33:55.397Z,43.07
2018-04-12T15:36:25.460Z,47.90
2018-04-12T15:38:54.685Z,50.20
2018-04-12T15:41:23.892Z,49.80
2018-04-12T15:43:53.885Z,46.87
2018-04-12T15:46:23.105Z,48.90
2018-04-12T15:48:53.093Z,46.63
2018-04-12T15:51:22.354Z,22.77
2018-04-12T15:53:51.578Z,36.87
2018-04-12T15:56:20.790Z,32.73
2018-04-12T15:58:50.040Z,35.70
2018-04-12T16:01:19.256Z,34.37
2018-04-12T16:03:48.505Z,33.20
2018-04-12T16:06:18.485Z,37.13
2018-04-12T16:08:47.831Z,35.80
2018-04-12T16:11:17.826Z,35.50
2018-04-12T16:13:47.088Z,34.37
2018-04-12T16:16:16.292Z,36.27
2018-04-12T16:18:45.679Z,36.67
2018-04-12T16:21:14.888Z,36.20
2018-04-12T16:23:44.221Z,38.47
2018-04-12T16:26:13.425Z,37.93
2018-04-12T16:28:43.501Z,35.77
2018-04-12T16:31:12.757Z,32.60
2018-04-12T16:33:42.759Z,29.70
2018-04-12T16:36:12.014Z,31.97
2018-04-12T16:38:41.254Z,29.40
2018-04-12T16:41:11.347Z,27.17
2018-04-12T16:43:40.575Z,23.33
2018-04-12T16:46:09.834Z,21.87
2018-04-12T16:48:39.269Z,21.23
2018-04-12T16:51:08.535Z,21.87
2018-04-12T16:53:37.780Z,23.53
2018-04-12T16:56:07.903Z,21.93
2018-04-12T16:58:37.897Z,22.10
2018-04-12T17:01:07.146Z,22.97
2018-04-12T17:03:36.455Z,21.63
2018-04-12T17:06:06.472Z,24.10
2018-04-12T17:08:35.695Z,24.20
2018-04-12T17:11:04.955Z,22.63
2018-04-12T17:13:34.230Z,22.60
2018-04-12T17:16:04.208Z,21.83
2018-04-12T17:18:33.433Z,20.30
2018-04-12T17:21:03.429Z,19.30
2018-04-12T17:23:32.677Z,18.97
2018-04-12T17:26:01.945Z,18.40
2018-04-12T17:28:31.967Z,18.30
2018-04-12T17:31:01.946Z,17.67
2018-04-12T17:33:31.213Z,17.13
2018-04-12T17:36:00.417Z,16.03
2018-04-12T17:38:29.668Z,16.00
2018-04-12T17:40:58.983Z,15.97
2018-04-12T17:43:29.004Z,16.10
2018-04-12T17:45:58.247Z,13.97
2018-04-12T17:48:27.614Z,15.90
2018-04-12T17:50:56.839Z,15.30
2018-04-12T17:53:26.133Z,13.93
2018-04-12T17:55:55.358Z,12.07
2018-04-12T17:58:24.590Z,11.40
2018-04-12T18:00:54.582Z,12.30
2018-04-12T18:03:23.835Z,11.20
2018-04-12T18:05:53.782Z,12.03
2018-04-12T18:08:23.002Z,12.10
2018-04-12T18:10:52.302Z,12.87
2018-04-12T18:13:22.354Z,12.10
2018-04-12T18:15:51.695Z,12.33
2018-04-12T18:18:20.933Z,12.13
2018-04-12T18:20:50.948Z,11.63
2018-04-12T18:23:21.036Z,12.00
2018-04-12T18:25:50.499Z,12.10
2018-04-12T18:28:20.471Z,11.87
2018-04-12T18:30:49.753Z,11.77
2018-04-12T18:33:19.015Z,11.70
2018-04-12T18:35:48.314Z,11.10
2018-04-12T18:38:17.548Z,11.40
2018-04-12T18:40:46.797Z,11.37
2018-04-12T18:43:16.778Z,11.30
2018-04-12T18:45:46.231Z,11.97
2018-04-12T18:48:15.472Z,12.53
2018-04-12T18:50:44.730Z,11.37
2018-04-12T18:53:13.952Z,12.03
2018-04-12T18:55:43.201Z,10.83
2018-04-12T18:58:13.772Z,12.20
2018-04-12T19:00:42.952Z,12.73
2018-04-12T19:03:12.171Z,13.47
2018-04-12T19:05:41.458Z,13.57
2018-04-12T19:08:10.694Z,12.60
2018-04-12T19:10:40.701Z,12.67
2018-04-12T19:13:09.983Z,12.50
2018-04-12T19:15:39.252Z,13.30
2018-04-12T19:18:08.510Z,13.50
2018-04-12T19:20:38.541Z,14.33
2018-04-12T19:23:08.531Z,13.30
2018-04-12T19:25:38.591Z,13.80
2018-04-12T19:28:07.882Z,14.30
2018-04-12T19:30:37.188Z,13.47
2018-04-12T19:33:06.456Z,11.97
2018-04-12T19:35:35.682Z,12.70
2018-04-12T19:38:04.928Z,13.27
2018-04-12T19:40:34.947Z,14.40
2018-04-12T19:43:04.955Z,11.67
2018-04-12T19:45:34.256Z,13.23
2018-04-12T19:48:03.502Z,14.30
2018-04-12T19:50:32.701Z,13.13
2018-04-12T19:53:01.999Z,13.00
2018-04-12T19:55:32.034Z,12.83
2018-04-12T19:58:01.330Z,13.17
2018-04-12T20:00:30.833Z,12.53
2018-04-12T20:03:00.053Z,12.37
2018-04-12T20:05:30.070Z,12.37
2018-04-12T20:08:00.132Z,13.07
2018-04-12T20:10:29.384Z,12.30
2018-04-12T20:12:58.961Z,12.60
2018-04-12T20:15:28.218Z,13.40
2018-04-12T20:17:57.456Z,12.83
2018-04-12T20:20:26.742Z,12.77
2018-04-12T20:22:56.821Z,13.70
2018-04-12T20:25:26.810Z,13.27
2018-04-12T20:27:56.042Z,13.50
2018-04-12T20:30:25.290Z,13.40
2018-04-12T20:32:54.542Z,14.73
2018-04-12T20:35:23.780Z,14.47
2018-04-12T20:37:53.777Z,15.20
2018-04-12T20:40:23.836Z,15.83
2018-04-12T20:42:53.110Z,14.53
2018-04-12T20:45:23.118Z,16.43
2018-04-12T20:47:53.111Z,15.50
2018-04-12T20:50:22.348Z,15.50
2018-04-12T20:52:51.622Z,20.23
2018-04-12T20:55:21.713Z,21.57
2018-04-12T20:57:50.962Z,19.60
2018-04-12T21:00:20.216Z,20.37
2018-04-12T21:02:49.511Z,19.07
2018-04-12T21:05:18.766Z,17.67
2018-04-12T21:07:48.853Z,16.60
2018-04-12T21:10:18.842Z,17.60
2018-04-12T21:12:48.108Z,16.80
2018-04-12T21:15:17.339Z,20.23
2018-04-12T21:17:46.572Z,20.10
2018-04-12T21:20:16.590Z,22.80
2018-04-12T21:22:46.571Z,22.47
2018-04-12T21:25:15.825Z,24.70
2018-04-12T21:27:45.053Z,24.23
2018-04-12T21:30:14.283Z,25.30
2018-04-12T21:32:43.525Z,23.70
2018-04-12T21:35:12.786Z,22.00
2018-04-12T21:37:42.018Z,22.63
2018-04-12T21:40:11.294Z,22.40
2018-04-12T21:42:41.265Z,23.50
2018-04-12T21:45:10.518Z,25.40
2018-04-12T21:47:40.553Z,24.70
2018-04-12T21:50:09.778Z,26.93
2018-04-12T21:52:39.039Z,24.47
2018-04-12T21:55:08.328Z,25.20
2018-04-12T21:57:38.326Z,26.40
2018-04-12T22:00:08.367Z,22.83
2018-04-12T22:02:37.577Z,22.40
2018-04-12T22:05:06.914Z,21.50
2018-04-12T22:07:36.456Z,19.50
2018-04-12T22:10:06.441Z,19.90
2018-04-12T22:12:35.692Z,21.30
2018-04-12T22:15:04.927Z,22.60
2018-04-12T22:17:34.968Z,21.47
2018-04-12T22:20:04.258Z,21.17
2018-04-12T22:22:33.519Z,21.53
2018-04-12T22:25:02.777Z,23.03
2018-04-12T22:27:32.771Z,23.10
2018-04-12T22:30:02.790Z,24.90
2018-04-12T22:32:32.081Z,23.90
2018-04-12T22:35:01.311Z,23.67
2018-04-12T22:37:31.327Z,27.20
2018-04-12T22:40:01.311Z,29.20
2018-04-12T22:42:30.570Z,31.03
2018-04-12T22:44:59.801Z,33.10
2018-04-12T22:47:29.034Z,35.13
2018-04-12T22:49:59.008Z,32.20
2018-04-12T22:52:28.233Z,34.03
2018-04-12T22:54:58.311Z,33.73
2018-04-12T22:57:27.522Z,32.70
2018-04-12T22:59:56.758Z,35.10
2018-04-12T23:02:26.001Z,30.37
2018-04-12T23:04:55.240Z,32.30
2018-04-12T23:07:24.699Z,31.93
2018-04-12T23:09:53.939Z,31.70
2018-04-12T23:12:23.236Z,32.07
2018-04-12T23:14:52.472Z,29.07
2018-04-12T23:17:22.442Z,32.80
2018-04-12T23:19:51.706Z,31.67
2018-04-12T23:22:20.915Z,32.57
2018-04-12T23:24:50.158Z,30.40
2018-04-12T23:27:19.384Z,31.67
2018-04-12T23:29:48.608Z,30.20
2018-04-12T23:32:17.841Z,33.87
2018-04-12T23:34:47.097Z,29.37
2018-04-12T23:37:16.314Z,30.83
2018-04-12T23:39:45.566Z,28.20
2018-04-12T23:42:14.802Z,29.43
2018-04-12T23:44:44.049Z,29.00
2018-04-12T23:47:14.022Z,29.23
2018-04-12T23:49:43.261Z,29.93
2018-04-12T23:52:13.282Z,29.27
2018-04-12T23:54:42.513Z,28.80
2018-04-12T23:57:11.770Z,35.50
2018-04-12T23:59:41.845Z,41.07
